Gillum, Illinois
Current Conditions -  °F | °C
As of 3:56 PM on Saturday 20 Dec 2014 (Local Time) from KBMI Reporting Station
Overcast Overcast  
Wind Chill: 29°   Ceiling: 3000
Heat Index: 33°   Visibility: 8mi
Dew Point: 29°   Wind: 5mph
Humidity: 86%   Direction: 150°SSE
Pressure: 30.25"   Gusts: NA
Location:  40.4766°N, 88.992°W
Report Text: KBMI 202156Z 15004KT 8SM BKN030 OVC050 01/M02 A3025 RMK AO2 T00051016 SLP261
Loading
Personal Weather Stations






























Interactive Weather Map New forecast layout! Learn more

10-Day Weather Forecast

Advertisements
Track Severe Weather on mobile